Aeroporto :







RITROVATECI SU...

 
LOGIN :

Iscrizione | Disclaimer

   EN    FR    IT 

 









Sommario :    VFR   VFR Marginale   IFR   IFR Intensivo   IFR Molto Intensivo
Visibilità : 
Base nubi : 
>= 8 km
>= 3000ft
5 / 8 km
1000 / 3000 ft
1500m / 5 km
500 / 1000 ft
800 / 1500m
200 / 500 ft
< 800m
< 200 ft
Simboli :   Temporali  Nebbia  Neve Forte  Precipitazioni Forti  Vento > 20 kt






- Altitudine del aeroporto : 522 ft
- Codice IATA : YBG


CYBG - CFB Bagotville

ULTIMO METAR :
  • 051312Z 26012G19KT 25SM BKN020 21/17 A2964 RMK SC5 CIG VRB 15-25 SLP037

METARs OBSOLETI :
  • 051247Z 24013KT 20SM BKN024 20/18 A2963 RMK SC7 SLP033
  • 051200Z 13008KT 15SM FEW014 BKN031 18/17 A2960 RMK SC2SC6 SLP025
  • 051145Z 13007KT 10SM SCT014 BKN036 18/17 A2960 RMK SC3SC4 SLP024
  • 051126Z 19004KT 3SM -SHRA BR BKN014 OVC036 18/17 A2960 RMK SC6SC2 VIS VRB 2-4 CIG VRB 10-18 SLP025
  • 051116Z 12006KT 6SM -SHRA BR BKN014 BKN035 18/17 A2959 RMK SC5SC2 CIG VRB 10-18 SLP020
  • 051100Z 12008KT 20SM BKN018 BKN035 18/17 A2959 RMK SC6SC2 SLP020

TAF TAF CYBG
Valido dal 05 a 12 ore il 06 a 12 ore UTC


051130Z 0512/0612 19005KT P6SM SCT012 BKN030
TEMPO 0512/0513 2SM -SHRA BR BKN012 OVC030
FM051300 19008KT P6SM SCT012 BKN030
TEMPO 0513/0515 5SM -SHRA BR BKN012 OVC030
BECMG 0513/0515 26018G28KT
FM051500 26018G28KT P6SM BKN030
FM051800 26015G25KT P6SM BKN040
TEMPO 0518/0603 P6SM -SHRA
PROB30 0518/0523 VRB20G35KT 2SM TSRA BR OVC040CB
FM060300 24010KT P6SM SCT025 BKN060 RMK NXT FCST BY 051500Z
FIR CZUL / America del Nord



MetMap, La meteo Aeronautica in un colpo d'occhio ! - Copyright ORBIFLY Dicembre 2007 - Disclaimer

ORBIFLY MET'MAP TEAM :

Programmazione e sviluppo : Alexandra Zaïnal
Concezione : Baudouin d'Aumeries
Aiuto per la programmazione : Marc-Olivier Méhu
Supporto tecnico e logistico : Manuel Goepfert
Aiuto per la traduzione : Arnaldo La Scala

Contatto : metmap@orbifly.com




FONTI E CREDITI :

   NOAA